sensor_id;sensor_type;location;lat;lon;timestamp;pressure;altitude;pressure_sealevel;temperature;humidity
81232;BME280;70703;55.652;37.710;2024-03-23T00:52:42;99283.97;;;4.18;59.29
81232;BME280;70703;55.652;37.710;2024-03-23T00:52:55;99299.41;;;4.23;59.30
81232;BME280;70703;55.652;37.710;2024-03-23T00:53:48;99287.81;;;4.24;59.39
81232;BME280;70703;55.652;37.710;2024-03-23T00:54:00;99285.47;;;4.21;59.35
81232;BME280;70703;55.652;37.710;2024-03-23T00:54:11;99234.09;;;3.89;59.40
81232;BME280;70703;55.652;37.710;2024-03-23T00:54:23;99259.28;;;4.09;59.44
81232;BME280;70703;55.652;37.710;2024-03-23T00:54:35;99292.78;;;4.27;59.40
81232;BME280;70703;55.652;37.710;2024-03-23T00:54:47;99287.47;;;4.27;59.54
81232;BME280;70703;55.652;37.710;2024-03-23T00:54:58;99234.09;;;3.89;59.48
81232;BME280;70703;55.652;37.710;2024-03-23T00:55:10;99290.97;;;4.27;59.65
81232;BME280;70703;55.652;37.710;2024-03-23T00:55:22;99288.16;;;4.29;59.54
81232;BME280;70703;55.652;37.710;2024-03-23T00:55:35;99284.84;;;4.27;59.66
81232;BME280;70703;55.652;37.710;2024-03-23T00:55:47;99284.34;;;4.23;59.73
81232;BME280;70703;55.652;37.710;2024-03-23T00:55:59;99290.81;;;4.29;59.54
81232;BME280;70703;55.652;37.710;2024-03-23T00:56:11;99269.91;;;4.18;59.62
81232;BME280;70703;55.652;37.710;2024-03-23T00:56:24;99281.91;;;4.30;59.65
81232;BME280;70703;55.652;37.710;2024-03-23T00:56:35;99261.63;;;4.12;59.52
81232;BME280;70703;55.652;37.710;2024-03-23T00:56:47;99288.16;;;4.29;59.70
81232;BME280;70703;55.652;37.710;2024-03-23T00:56:58;99288.16;;;4.29;59.70
81232;BME280;70703;55.652;37.710;2024-03-23T00:57:10;99285.19;;;4.32;59.55
81232;BME280;70703;55.652;37.710;2024-03-23T00:57:23;99285.03;;;4.34;59.70
81232;BME280;70703;55.652;37.710;2024-03-23T00:57:35;99290.34;;;4.34;59.57
81232;BME280;70703;55.652;37.710;2024-03-23T00:57:46;99291.19;;;4.34;59.63
81232;BME280;70703;55.652;37.710;2024-03-23T00:57:58;99277.59;;;4.29;59.50
81232;BME280;70703;55.652;37.710;2024-03-23T00:58:09;99284.22;;;4.33;59.57
81232;BME280;70703;55.652;37.710;2024-03-23T00:58:21;99288.38;;;4.36;59.69
81232;BME280;70703;55.652;37.710;2024-03-23T00:58:34;99285.03;;;4.34;59.69
81232;BME280;70703;55.652;37.710;2024-03-23T00:58:46;99282.56;;;4.32;59.79
81232;BME280;70703;55.652;37.710;2024-03-23T00:58:59;99284.06;;;4.35;59.65
81232;BME280;70703;55.652;37.710;2024-03-23T00:59:11;99280.25;;;4.37;59.78
81232;BME280;70703;55.652;37.710;2024-03-23T00:59:23;99232.94;;;4.00;59.64
81232;BME280;70703;55.652;37.710;2024-03-23T00:59:38;99290.69;;;4.39;59.54
81232;BME280;70703;55.652;37.710;2024-03-23T00:59:50;99280.09;;;4.39;59.52
81232;BME280;70703;55.652;37.710;2024-03-23T01:00:03;99285.56;;;4.37;59.47
81232;BME280;70703;55.652;37.710;2024-03-23T01:00:17;99294.16;;;4.39;59.54
81232;BME280;70703;55.652;37.710;2024-03-23T01:00:29;99292.19;;;4.41;59.45
81232;BME280;70703;55.652;37.710;2024-03-23T01:00:41;99276.59;;;4.38;59.42
81232;BME280;70703;55.652;37.710;2024-03-23T01:00:52;99282.44;;;4.42;59.41
81232;BME280;70703;55.652;37.710;2024-03-23T01:01:03;99281.44;;;4.43;59.50
81232;BME280;70703;55.652;37.710;2024-03-23T01:01:15;99250.91;;;4.22;59.38
81232;BME280;70703;55.652;37.710;2024-03-23T01:01:26;99277.28;;;4.40;59.36
81232;BME280;70703;55.652;37.710;2024-03-23T01:01:38;99260.72;;;4.30;59.32
81232;BME280;70703;55.652;37.710;2024-03-23T01:01:49;99274.66;;;4.40;59.19
81232;BME280;70703;55.652;37.710;2024-03-23T01:02:01;99278.97;;;4.41;59.18
81232;BME280;70703;55.652;37.710;2024-03-23T01:02:12;99283.06;;;4.44;59.28
81232;BME280;70703;55.652;37.710;2024-03-23T01:02:25;99281.44;;;4.43;59.30
81232;BME280;70703;55.652;37.710;2024-03-23T01:02:37;99282.44;;;4.42;59.29
81232;BME280;70703;55.652;37.710;2024-03-23T01:02:49;99250.75;;;4.24;59.22
81232;BME280;70703;55.652;37.710;2024-03-23T01:03:01;99260.06;;;4.36;59.21
81232;BME280;70703;55.652;37.710;2024-03-23T01:03:14;99280.13;;;4.47;59.33
81232;BME280;70703;55.652;37.710;2024-03-23T01:03:27;99274.31;;;4.43;59.32
81232;BME280;70703;55.652;37.710;2024-03-23T01:03:40;99274.84;;;4.47;59.40
81232;BME280;70703;55.652;37.710;2024-03-23T01:03:51;99281.78;;;4.48;59.49
81232;BME280;70703;55.652;37.710;2024-03-23T01:04:02;99269.03;;;4.43;59.31
81232;BME280;70703;55.652;37.710;2024-03-23T01:04:13;99276.47;;;4.48;59.43
81232;BME280;70703;55.652;37.710;2024-03-23T01:04:26;99272.34;;;4.45;59.51
81232;BME280;70703;55.652;37.710;2024-03-23T01:04:39;99265.41;;;4.44;59.36
81232;BME280;70703;55.652;37.710;2024-03-23T01:04:51;99265.88;;;4.48;59.55
81232;BME280;70703;55.652;37.710;2024-03-23T01:05:04;99278.97;;;4.50;59.73
81232;BME280;70703;55.652;37.710;2024-03-23T01:05:16;99247.81;;;4.35;59.60
81232;BME280;70703;55.652;37.710;2024-03-23T01:05:28;99275.34;;;4.51;59.61
81232;BME280;70703;55.652;37.710;2024-03-23T01:05:40;99277.97;;;4.51;59.81
81232;BME280;70703;55.652;37.710;2024-03-23T01:05:52;99274.19;;;4.53;59.71
81232;BME280;70703;55.652;37.710;2024-03-23T01:06:05;99273.38;;;4.53;59.75
81232;BME280;70703;55.652;37.710;2024-03-23T01:06:19;99274.19;;;4.53;59.68
81232;BME280;70703;55.652;37.710;2024-03-23T01:06:31;99256.31;;;4.47;59.70
81232;BME280;70703;55.652;37.710;2024-03-23T01:06:43;99260.25;;;4.43;59.48
81232;BME280;70703;55.652;37.710;2024-03-23T01:06:54;99252.16;;;4.44;59.43
81232;BME280;70703;55.652;37.710;2024-03-23T01:07:05;99249.84;;;4.41;59.33
81232;BME280;70703;55.652;37.710;2024-03-23T01:07:16;99267.38;;;4.51;59.40
81232;BME280;70703;55.652;37.710;2024-03-23T01:07:30;99265.44;;;4.53;59.29
81232;BME280;70703;55.652;37.710;2024-03-23T01:07:42;99263.44;;;4.55;59.31
81232;BME280;70703;55.652;37.710;2024-03-23T01:07:54;99262.78;;;4.53;59.43
81232;BME280;70703;55.652;37.710;2024-03-23T01:08:06;99265.09;;;4.56;59.34
81232;BME280;70703;55.652;37.710;2024-03-23T01:08:17;99243.69;;;4.41;59.32
81232;BME280;70703;55.652;37.710;2024-03-23T01:08:28;99262.44;;;4.56;59.40
81232;BME280;70703;55.652;37.710;2024-03-23T01:08:40;99246.84;;;4.44;59.25
81232;BME280;70703;55.652;37.710;2024-03-23T01:08:52;99267.75;;;4.56;59.26
81232;BME280;70703;55.652;37.710;2024-03-23T01:09:04;99266.06;;;4.55;59.20
81232;BME280;70703;55.652;37.710;2024-03-23T01:09:15;99266.94;;;4.55;59.18
81232;BME280;70703;55.652;37.710;2024-03-23T01:09:27;99264.94;;;4.57;59.13
81232;BME280;70703;55.652;37.710;2024-03-23T01:09:39;99263.09;;;4.58;59.24
81232;BME280;70703;55.652;37.710;2024-03-23T01:09:50;99270.22;;;4.57;59.30
81232;BME280;70703;55.652;37.710;2024-03-23T01:10:06;99270.22;;;4.57;59.34
81232;BME280;70703;55.652;37.710;2024-03-23T01:10:18;99267.41;;;4.59;59.45
81232;BME280;70703;55.652;37.710;2024-03-23T01:10:30;99259.63;;;4.57;59.55
81232;BME280;70703;55.652;37.710;2024-03-23T01:10:43;99271.91;;;4.58;59.54
81232;BME280;70703;55.652;37.710;2024-03-23T01:10:55;99266.75;;;4.57;59.50
81232;BME280;70703;55.652;37.710;2024-03-23T01:11:07;99232.94;;;4.34;59.40
81232;BME280;70703;55.652;37.710;2024-03-23T01:11:19;99261.63;;;4.55;59.49
81232;BME280;70703;55.652;37.710;2024-03-23T01:11:30;99261.75;;;4.54;59.46
81232;BME280;70703;55.652;37.710;2024-03-23T01:11:41;99258.81;;;4.57;59.44
81232;BME280;70703;55.652;37.710;2024-03-23T01:11:52;99259.81;;;4.56;59.58
81232;BME280;70703;55.652;37.710;2024-03-23T01:12:05;99260.44;;;4.58;59.55
81232;BME280;70703;55.652;37.710;2024-03-23T01:12:17;99194.84;;;4.19;59.58
81232;BME280;70703;55.652;37.710;2024-03-23T01:12:29;99234.25;;;4.38;59.67
81232;BME280;70703;55.652;37.710;2024-03-23T01:12:41;99265.75;;;4.58;59.55
81232;BME280;70703;55.652;37.710;2024-03-23T01:12:52;99238.06;;;4.44;59.73
81232;BME280;70703;55.652;37.710;2024-03-23T01:13:04;99261.31;;;4.58;59.51
81232;BME280;70703;55.652;37.710;2024-03-23T01:13:17;99263.78;;;4.60;59.64
81232;BME280;70703;55.652;37.710;2024-03-23T01:13:32;99222.03;;;4.37;59.47
81232;BME280;70703;55.652;37.710;2024-03-23T01:13:43;99256.81;;;4.59;59.43
81232;BME280;70703;55.652;37.710;2024-03-23T01:13:56;99258.81;;;4.57;59.38
81232;BME280;70703;55.652;37.710;2024-03-23T01:14:07;99255.84;;;4.60;59.29
81232;BME280;70703;55.652;37.710;2024-03-23T01:14:19;99252.50;;;4.58;59.31
81232;BME280;70703;55.652;37.710;2024-03-23T01:14:30;99255.16;;;4.58;59.41
81232;BME280;70703;55.652;37.710;2024-03-23T01:14:42;99260.16;;;4.61;59.15
81232;BME280;70703;55.652;37.710;2024-03-23T01:14:54;99256.66;;;4.60;59.29
81232;BME280;70703;55.652;37.710;2024-03-23T01:15:07;99254.84;;;4.61;59.32
81232;BME280;70703;55.652;37.710;2024-03-23T01:15:19;99257.50;;;4.61;59.32
81232;BME280;70703;55.652;37.710;2024-03-23T01:15:31;99261.78;;;4.62;59.52
81232;BME280;70703;55.652;37.710;2024-03-23T01:15:48;99231.63;;;4.46;59.28
81232;BME280;70703;55.652;37.710;2024-03-23T01:15:59;99247.22;;;4.58;59.44
81232;BME280;70703;55.652;37.710;2024-03-23T01:16:11;99257.19;;;4.64;59.69
81232;BME280;70703;55.652;37.710;2024-03-23T01:16:23;99231.28;;;4.50;59.67
81232;BME280;70703;55.652;37.710;2024-03-23T01:16:34;99200.13;;;4.27;59.55
81232;BME280;70703;55.652;37.710;2024-03-23T01:16:46;99258.00;;;4.64;59.66
81232;BME280;70703;55.652;37.710;2024-03-23T01:16:59;99261.47;;;4.65;59.58
81232;BME280;70703;55.652;37.710;2024-03-23T01:17:10;99258.16;;;4.63;59.54
81232;BME280;70703;55.652;37.710;2024-03-23T01:17:22;99260.47;;;4.66;59.44
81232;BME280;70703;55.652;37.710;2024-03-23T01:17:34;99200.47;;;4.32;59.59
81232;BME280;70703;55.652;37.710;2024-03-23T01:17:45;99261.16;;;4.68;59.51
81232;BME280;70703;55.652;37.710;2024-03-23T01:17:58;99255.88;;;4.68;59.44
81232;BME280;70703;55.652;37.710;2024-03-23T01:18:09;99254.19;;;4.67;59.42
81232;BME280;70703;55.652;37.710;2024-03-23T01:18:22;99247.72;;;4.61;59.45
81232;BME280;70703;55.652;37.710;2024-03-23T01:18:35;99243.94;;;4.64;59.47
81232;BME280;70703;55.652;37.710;2024-03-23T01:18:47;99254.19;;;4.67;59.38
81232;BME280;70703;55.652;37.710;2024-03-23T01:18:59;99251.53;;;4.67;59.38
81232;BME280;70703;55.652;37.710;2024-03-23T01:19:12;99250.22;;;4.63;59.37
81232;BME280;70703;55.652;37.710;2024-03-23T01:19:24;99252.53;;;4.66;59.42
81232;BME280;70703;55.652;37.710;2024-03-23T01:19:35;99236.78;;;4.56;59.40
81232;BME280;70703;55.652;37.710;2024-03-23T01:19:46;99241.25;;;4.56;59.40
81232;BME280;70703;55.652;37.710;2024-03-23T01:19:58;99250.56;;;4.68;59.25
81232;BME280;70703;55.652;37.710;2024-03-23T01:20:10;99248.72;;;4.69;59.46
81232;BME280;70703;55.652;37.710;2024-03-23T01:20:23;99249.56;;;4.69;59.47
81232;BME280;70703;55.652;37.710;2024-03-23T01:20:35;99249.56;;;4.69;59.58
81232;BME280;70703;55.652;37.710;2024-03-23T01:20:47;99234.66;;;4.60;59.52
81232;BME280;70703;55.652;37.710;2024-03-23T01:21:00;99247.22;;;4.66;59.63
81232;BME280;70703;55.652;37.710;2024-03-23T01:21:12;99206.28;;;4.44;59.44
81232;BME280;70703;55.652;37.710;2024-03-23T01:21:23;99234.47;;;4.61;59.25
81232;BME280;70703;55.652;37.710;2024-03-23T01:21:34;99246.09;;;4.69;59.36
81232;BME280;70703;55.652;37.710;2024-03-23T01:21:47;99246.09;;;4.69;59.22
81232;BME280;70703;55.652;37.710;2024-03-23T01:22:00;99246.91;;;4.69;59.23
81232;BME280;70703;55.652;37.710;2024-03-23T01:22:11;99243.28;;;4.70;59.26
81232;BME280;70703;55.652;37.710;2024-03-23T01:22:24;99249.25;;;4.72;59.27
81232;BME280;70703;55.652;37.710;2024-03-23T01:22:37;99244.94;;;4.71;59.28
81232;BME280;70703;55.652;37.710;2024-03-23T01:22:49;99230.00;;;4.62;59.03
81232;BME280;70703;55.652;37.710;2024-03-23T01:23:02;99216.44;;;4.57;59.28
81232;BME280;70703;55.652;37.710;2024-03-23T01:23:14;99244.78;;;4.73;59.24
81232;BME280;70703;55.652;37.710;2024-03-23T01:23:26;99203.19;;;4.48;59.20
81232;BME280;70703;55.652;37.710;2024-03-23T01:23:37;99252.56;;;4.74;59.19
81232;BME280;70703;55.652;37.710;2024-03-23T01:23:48;99234.66;;;4.68;59.23
81232;BME280;70703;55.652;37.710;2024-03-23T01:24:02;99245.41;;;4.75;59.42
81232;BME280;70703;55.652;37.710;2024-03-23T01:24:14;99242.59;;;4.76;59.51
81232;BME280;70703;55.652;37.710;2024-03-23T01:24:26;99245.41;;;4.75;59.59
81232;BME280;70703;55.652;37.710;2024-03-23T01:24:38;99243.47;;;4.77;59.67
81232;BME280;70703;55.652;37.710;2024-03-23T01:24:51;99246.28;;;4.75;59.66
81232;BME280;70703;55.652;37.710;2024-03-23T01:25:03;99240.13;;;4.75;59.75
81232;BME280;70703;55.652;37.710;2024-03-23T01:25:15;99242.59;;;4.76;59.74
81232;BME280;70703;55.652;37.710;2024-03-23T01:25:26;99224.72;;;4.70;59.68
81232;BME280;70703;55.652;37.710;2024-03-23T01:25:40;99244.28;;;4.77;59.57
81232;BME280;70703;55.652;37.710;2024-03-23T01:25:53;99228.06;;;4.72;59.60
81232;BME280;70703;55.652;37.710;2024-03-23T01:26:05;99239.81;;;4.78;59.63
81232;BME280;70703;55.652;37.710;2024-03-23T01:26:16;99228.69;;;4.66;59.72
81232;BME280;70703;55.652;37.710;2024-03-23T01:26:27;99224.72;;;4.70;59.66
81232;BME280;70703;55.652;37.710;2024-03-23T01:26:40;99231.88;;;4.78;59.66
81232;BME280;70703;55.652;37.710;2024-03-23T01:26:51;99239.66;;;4.79;59.61
81232;BME280;70703;55.652;37.710;2024-03-23T01:27:04;99233.69;;;4.77;59.46
81232;BME280;70703;55.652;37.710;2024-03-23T01:27:15;99234.66;;;4.76;59.59
81232;BME280;70703;55.652;37.710;2024-03-23T01:27:27;99228.72;;;4.74;59.40
81232;BME280;70703;55.652;37.710;2024-03-23T01:27:38;99235.34;;;4.78;59.31
81232;BME280;70703;55.652;37.710;2024-03-23T01:27:50;99245.59;;;4.81;59.34
81232;BME280;70703;55.652;37.710;2024-03-23T01:28:02;99232.34;;;4.81;59.20
81232;BME280;70703;55.652;37.710;2024-03-23T01:28:13;99215.44;;;4.66;59.10
81232;BME280;70703;55.652;37.710;2024-03-23T01:28:24;99223.75;;;4.71;59.19
81232;BME280;70703;55.652;37.710;2024-03-23T01:28:35;99231.72;;;4.79;59.03
81232;BME280;70703;55.652;37.710;2024-03-23T01:28:48;99233.34;;;4.80;59.05
81232;BME280;70703;55.652;37.710;2024-03-23T01:29:00;99235.19;;;4.80;59.08
81232;BME280;70703;55.652;37.710;2024-03-23T01:29:11;99187.59;;;4.54;59.03
81232;BME280;70703;55.652;37.710;2024-03-23T01:29:23;99235.00;;;4.81;59.14
81232;BME280;70703;55.652;37.710;2024-03-23T01:29:35;99233.50;;;4.79;59.16
81232;BME280;70703;55.652;37.710;2024-03-23T01:29:47;99237.66;;;4.81;59.16
81232;BME280;70703;55.652;37.710;2024-03-23T01:29:59;99233.69;;;4.77;59.38
81232;BME280;70703;55.652;37.710;2024-03-23T01:30:10;99229.22;;;4.78;59.35
81232;BME280;70703;55.652;37.710;2024-03-23T01:30:22;99241.97;;;4.82;59.26
81232;BME280;70703;55.652;37.710;2024-03-23T01:30:33;99232.34;;;4.81;59.19
81232;BME280;70703;55.652;37.710;2024-03-23T01:30:45;99239.50;;;4.81;59.26
81232;BME280;70703;55.652;37.710;2024-03-23T01:30:57;99231.03;;;4.77;59.23
81232;BME280;70703;55.652;37.710;2024-03-23T01:31:10;99214.78;;;4.64;59.09
81232;BME280;70703;55.652;37.710;2024-03-23T01:31:21;99226.41;;;4.79;59.34
81232;BME280;70703;55.652;37.710;2024-03-23T01:31:33;99231.72;;;4.79;59.31
81232;BME280;70703;55.652;37.710;2024-03-23T01:31:45;99218.13;;;4.74;59.57
81232;BME280;70703;55.652;37.710;2024-03-23T01:31:56;99233.34;;;4.80;59.44
81232;BME280;70703;55.652;37.710;2024-03-23T01:32:08;99229.72;;;4.81;59.56
81232;BME280;70703;55.652;37.710;2024-03-23T01:32:21;99204.84;;;4.66;59.62
81232;BME280;70703;55.652;37.710;2024-03-23T01:32:33;99224.75;;;4.78;59.84
81232;BME280;70703;55.652;37.710;2024-03-23T01:32:45;99207.84;;;4.71;59.78
81232;BME280;70703;55.652;37.710;2024-03-23T01:32:57;99227.88;;;4.82;59.79
81232;BME280;70703;55.652;37.710;2024-03-23T01:33:09;99219.09;;;4.81;59.99
81232;BME280;70703;55.652;37.710;2024-03-23T01:33:20;99224.41;;;4.81;59.91
81232;BME280;70703;55.652;37.710;2024-03-23T01:33:32;99219.44;;;4.78;59.82
81232;BME280;70703;55.652;37.710;2024-03-23T01:33:44;99221.59;;;4.83;59.75
81232;BME280;70703;55.652;37.710;2024-03-23T01:33:56;99224.25;;;4.83;59.74
81232;BME280;70703;55.652;37.710;2024-03-23T01:34:07;99233.03;;;4.84;59.78
81232;BME280;70703;55.652;37.710;2024-03-23T01:34:18;99231.22;;;4.84;59.72
81232;BME280;70703;55.652;37.710;2024-03-23T01:34:31;99226.06;;;4.82;59.71
81232;BME280;70703;55.652;37.710;2024-03-23T01:34:42;99226.41;;;4.79;59.55
81232;BME280;70703;55.652;37.710;2024-03-23T01:34:54;99220.94;;;4.81;59.52
81232;BME280;70703;55.652;37.710;2024-03-23T01:35:08;99230.22;;;4.85;59.34
81232;BME280;70703;55.652;37.710;2024-03-23T01:35:21;99204.06;;;4.74;59.27
81232;BME280;70703;55.652;37.710;2024-03-23T01:35:33;99215.47;;;4.82;59.17
81232;BME280;70703;55.652;37.710;2024-03-23T01:35:44;99225.75;;;4.86;59.14
81232;BME280;70703;55.652;37.710;2024-03-23T01:35:55;99219.09;;;4.81;59.08
81232;BME280;70703;55.652;37.710;2024-03-23T01:36:08;99212.16;;;4.80;59.26
81232;BME280;70703;55.652;37.710;2024-03-23T01:36:20;99227.41;;;4.87;59.14
81232;BME280;70703;55.652;37.710;2024-03-23T01:36:31;99222.91;;;4.87;59.03
81232;BME280;70703;55.652;37.710;2024-03-23T01:36:44;99226.38;;;4.88;59.16
81232;BME280;70703;55.652;37.710;2024-03-23T01:36:57;99214.31;;;4.85;59.13
81232;BME280;70703;55.652;37.710;2024-03-23T01:37:08;99225.75;;;4.86;59.16
81232;BME280;70703;55.652;37.710;2024-03-23T01:37:20;99223.75;;;4.88;59.13
81232;BME280;70703;55.652;37.710;2024-03-23T01:37:32;99229.03;;;4.88;59.10
81232;BME280;70703;55.652;37.710;2024-03-23T01:37:45;99230.72;;;4.89;59.23
81232;BME280;70703;55.652;37.710;2024-03-23T01:37:56;99224.59;;;4.88;59.19
81232;BME280;70703;55.652;37.710;2024-03-23T01:38:08;99224.91;;;4.85;59.04
81232;BME280;70703;55.652;37.710;2024-03-23T01:38:20;99221.59;;;4.83;59.18
81232;BME280;70703;55.652;37.710;2024-03-23T01:38:32;99180.00;;;4.59;59.00
81232;BME280;70703;55.652;37.710;2024-03-23T01:38:44;99225.41;;;4.89;59.16
81232;BME280;70703;55.652;37.710;2024-03-23T01:38:57;99169.56;;;4.49;59.20
81232;BME280;70703;55.652;37.710;2024-03-23T01:39:09;99226.25;;;4.89;59.08
81232;BME280;70703;55.652;37.710;2024-03-23T01:39:21;99231.56;;;4.89;59.15
81232;BME280;70703;55.652;37.710;2024-03-23T01:39:32;99219.09;;;4.81;59.26
81232;BME280;70703;55.652;37.710;2024-03-23T01:39:44;99232.53;;;4.80;59.29
81232;BME280;70703;55.652;37.710;2024-03-23T01:39:56;99228.38;;;4.86;59.12
81232;BME280;70703;55.652;37.710;2024-03-23T01:40:10;99227.41;;;4.87;59.19
81232;BME280;70703;55.652;37.710;2024-03-23T01:40:24;99217.78;;;4.77;59.05
81232;BME280;70703;55.652;37.710;2024-03-23T01:40:37;99226.38;;;4.88;59.03
81232;BME280;70703;55.652;37.710;2024-03-23T01:40:49;99229.03;;;4.88;59.01
81232;BME280;70703;55.652;37.710;2024-03-23T01:41:07;99228.06;;;4.89;59.03
81232;BME280;70703;55.652;37.710;2024-03-23T01:41:19;99224.59;;;4.88;58.95
81232;BME280;70703;55.652;37.710;2024-03-23T01:41:33;99224.06;;;4.85;58.94
81232;BME280;70703;55.652;37.710;2024-03-23T01:41:45;99223.59;;;4.89;59.04
81232;BME280;70703;55.652;37.710;2024-03-23T01:41:56;99227.88;;;4.90;58.93
81232;BME280;70703;55.652;37.710;2024-03-23T01:42:08;99221.09;;;4.88;59.03
81232;BME280;70703;55.652;37.710;2024-03-23T01:42:18;99221.78;;;4.90;58.98
81232;BME280;70703;55.652;37.710;2024-03-23T01:42:30;99216.81;;;4.87;58.90
81232;BME280;70703;55.652;37.710;2024-03-23T01:42:42;99221.09;;;4.88;59.07
81232;BME280;70703;55.652;37.710;2024-03-23T01:42:57;99209.19;;;4.75;58.96
81232;BME280;70703;55.652;37.710;2024-03-23T01:43:11;99222.28;;;4.85;59.10
81232;BME280;70703;55.652;37.710;2024-03-23T01:43:23;99220.78;;;4.82;58.78
81232;BME280;70703;55.652;37.710;2024-03-23T01:43:34;99218.59;;;4.86;59.04
81232;BME280;70703;55.652;37.710;2024-03-23T01:43:45;99214.31;;;4.85;59.04
81232;BME280;70703;55.652;37.710;2024-03-23T01:43:57;99217.13;;;4.84;58.98
81232;BME280;70703;55.652;37.710;2024-03-23T01:44:09;99220.28;;;4.87;59.00
81232;BME280;70703;55.652;37.710;2024-03-23T01:44:21;99219.28;;;4.88;58.95
81232;BME280;70703;55.652;37.710;2024-03-23T01:44:32;99216.81;;;4.87;58.84
81232;BME280;70703;55.652;37.710;2024-03-23T01:44:44;99216.81;;;4.87;59.01
81232;BME280;70703;55.652;37.710;2024-03-23T01:44:56;99220.97;;;4.89;58.90
81232;BME280;70703;55.652;37.710;2024-03-23T01:45:08;99204.53;;;4.77;58.88
81232;BME280;70703;55.652;37.710;2024-03-23T01:45:20;99217.63;;;4.87;58.89
81232;BME280;70703;55.652;37.710;2024-03-23T01:45:32;99225.56;;;4.87;58.97
81232;BME280;70703;55.652;37.710;2024-03-23T01:45:44;99211.84;;;4.84;58.98
81232;BME280;70703;55.652;37.710;2024-03-23T01:45:56;99217.63;;;4.87;58.81
81232;BME280;70703;55.652;37.710;2024-03-23T01:46:09;99212.81;;;4.82;58.96
81232;BME280;70703;55.652;37.710;2024-03-23T01:46:22;99216.81;;;4.87;58.97
81232;BME280;70703;55.652;37.710;2024-03-23T01:46:33;99216.13;;;4.85;58.99
81232;BME280;70703;55.652;37.710;2024-03-23T01:46:45;99225.91;;;4.84;59.12
81232;BME280;70703;55.652;37.710;2024-03-23T01:46:57;99216.13;;;4.76;59.18
81232;BME280;70703;55.652;37.710;2024-03-23T01:47:08;99222.44;;;4.84;59.19
81232;BME280;70703;55.652;37.710;2024-03-23T01:47:21;99209.84;;;4.77;59.20
81232;BME280;70703;55.652;37.710;2024-03-23T01:47:33;99183.19;;;4.62;59.13
81232;BME280;70703;55.652;37.710;2024-03-23T01:47:45;99208.50;;;4.81;59.39
81232;BME280;70703;55.652;37.710;2024-03-23T01:47:56;99197.75;;;4.75;59.28
81232;BME280;70703;55.652;37.710;2024-03-23T01:48:08;99215.13;;;4.86;59.24
81232;BME280;70703;55.652;37.710;2024-03-23T01:48:23;99215.13;;;4.86;59.09
81232;BME280;70703;55.652;37.710;2024-03-23T01:48:36;99218.78;;;4.85;59.28
81232;BME280;70703;55.652;37.710;2024-03-23T01:48:48;99212.31;;;4.87;59.12
81232;BME280;70703;55.652;37.710;2024-03-23T01:49:01;99208.84;;;4.87;59.07
81232;BME280;70703;55.652;37.710;2024-03-23T01:49:13;99190.97;;;4.72;59.18
81232;BME280;70703;55.652;37.710;2024-03-23T01:49:24;99198.91;;;4.80;59.22
81232;BME280;70703;55.652;37.710;2024-03-23T01:49:35;99205.19;;;4.88;59.41
81232;BME280;70703;55.652;37.710;2024-03-23T01:49:48;99205.38;;;4.86;59.30
81232;BME280;70703;55.652;37.710;2024-03-23T01:49:59;99216.81;;;4.87;59.31
81232;BME280;70703;55.652;37.710;2024-03-23T01:50:11;99212.50;;;4.86;59.34
81232;BME280;70703;55.652;37.710;2024-03-23T01:50:22;99197.09;;;4.81;59.41
81232;BME280;70703;55.652;37.710;2024-03-23T01:50:34;99202.53;;;4.88;59.47
81232;BME280;70703;55.652;37.710;2024-03-23T01:50:46;99213.16;;;4.88;59.43
81232;BME280;70703;55.652;37.710;2024-03-23T01:50:59;99198.59;;;4.75;59.44
81232;BME280;70703;55.652;37.710;2024-03-23T01:51:10;99214.00;;;4.88;59.47
81232;BME280;70703;55.652;37.710;2024-03-23T01:51:22;99190.63;;;4.75;59.66
81232;BME280;70703;55.652;37.710;2024-03-23T01:51:35;99209.50;;;4.89;59.64
81232;BME280;70703;55.652;37.710;2024-03-23T01:51:47;99203.38;;;4.88;59.71
81232;BME280;70703;55.652;37.710;2024-03-23T01:52:00;99208.69;;;4.88;59.60
81232;BME280;70703;55.652;37.710;2024-03-23T01:52:11;99178.38;;;4.74;59.68
81232;BME280;70703;55.652;37.710;2024-03-23T01:52:22;99204.22;;;4.89;59.50
81232;BME280;70703;55.652;37.710;2024-03-23T01:52:35;99157.84;;;4.60;59.64
81232;BME280;70703;55.652;37.710;2024-03-23T01:52:48;99200.56;;;4.90;59.52
81232;BME280;70703;55.652;37.710;2024-03-23T01:53:00;99197.25;;;4.88;59.53
81232;BME280;70703;55.652;37.710;2024-03-23T01:53:11;99195.59;;;4.87;59.50
81232;BME280;70703;55.652;37.710;2024-03-23T01:53:23;99201.38;;;4.90;59.42
81232;BME280;70703;55.652;37.710;2024-03-23T01:53:36;99191.47;;;4.84;59.57
81232;BME280;70703;55.652;37.710;2024-03-23T01:53:48;99191.28;;;4.86;59.32
81232;BME280;70703;55.652;37.710;2024-03-23T01:54:00;99190.94;;;4.80;59.51
81232;BME280;70703;55.652;37.710;2024-03-23T01:54:15;99171.41;;;4.65;59.53
81232;BME280;70703;55.652;37.710;2024-03-23T01:54:27;99184.84;;;4.80;59.58
81232;BME280;70703;55.652;37.710;2024-03-23T01:54:40;99199.91;;;4.88;59.42
81232;BME280;70703;55.652;37.710;2024-03-23T01:54:52;99205.88;;;4.90;59.27
81232;BME280;70703;55.652;37.710;2024-03-23T01:55:04;99200.56;;;4.90;59.50
81232;BME280;70703;55.652;37.710;2024-03-23T01:55:16;99194.13;;;4.84;59.61
81232;BME280;70703;55.652;37.710;2024-03-23T01:55:29;99195.28;;;4.90;59.55
81232;BME280;70703;55.652;37.710;2024-03-23T01:55:40;99197.91;;;4.90;59.56
81232;BME280;70703;55.652;37.710;2024-03-23T01:55:52;99201.56;;;4.89;59.55
81232;BME280;70703;55.652;37.710;2024-03-23T01:56:06;99202.53;;;4.88;59.38
81232;BME280;70703;55.652;37.710;2024-03-23T01:56:18;99202.88;;;4.93;59.34
81232;BME280;70703;55.652;37.710;2024-03-23T01:56:29;99202.88;;;4.93;59.48
81232;BME280;70703;55.652;37.710;2024-03-23T01:56:41;99194.47;;;4.89;59.46
81232;BME280;70703;55.652;37.710;2024-03-23T01:56:53;99195.91;;;4.92;59.45
81232;BME280;70703;55.652;37.710;2024-03-23T01:57:05;99200.56;;;4.90;59.38
81232;BME280;70703;55.652;37.710;2024-03-23T01:57:18;99186.66;;;4.88;59.43